Hettinger, ND

7:15 PM MDT on August 30, 2014 (GMT -0600)
Hettinger Municipal | Change Station
CLOSE
Current Station
Airport
Location: Hettinger,
Elevation: 2703 ft
Nearby Weather Stations

Elev 2703 ft 46.01 °N, 102.66 °W | Updated 22 minutes ago

Clear
Clear
71 °F
Feels Like 71 °F
N
16
Wind Variable Wind from East

Today
High -- | Low -- °F
--% Chance of Precip.
Yesterday
High -- | Low -- °F
Precip. -- in
6:08 AM 7:32 PM
Waxing Crescent, 26% visible
Pressure 29.62 in
Visibility 10.0 miles
Clouds Clear
Dew Point 58 °F
Humidity 63%
Rainfall 0.00 in
Snow Depth Not available.
UV 0 out of 12
Pollen 9.90 out of 12
Air Quality Not available.
Flu Activity Not available.
METAR KHEI 310053Z AUTO 09014KT 10SM CLR 22/14 A2965 RMK AO2 LTG DSNT W SLP029 T02170144

More Conditions Fewer Conditions

Pressure 29.62 in
Visibility 10.0 miles
Clouds Clear
Dew Point 58 °F
Humidity 63%
Rainfall 0.00 in
Snow Depth Not available.
UV 0 out of 12
Pollen 9.90 out of 12
Air Quality Not available.
Flu Activity Not available.
METAR KHEI 310053Z AUTO 09014KT 10SM CLR 22/14 A2965 RMK AO2 LTG DSNT W SLP029 T02170144

More Conditions Fewer Conditions

10-Day Weather Forecast

Almanac

Astronomy

Aug. 30, 2014 Rise Set
Actual Time 6:08 AM MDT 7:32 PM MDT
Civil Twilight 5:37 AM MDT 8:03 PM MDT
Nautical Twilight 4:59 AM MDT 8:40 PM MDT
Astronomical Twilight 4:19 AM MDT 9:20 PM MDT
Moon 11:15 AM MDT (8/30) 9:49 PM MDT (8/30)
Length of Visible Light 14h 25m
Length of Day
13h 23m
Tomorrow will be 3m 7s shorter.
Waxing Crescent, 26% of the Moon is Illuminated
Today
Waxing Crescent
Sep 2
First Quarter
Sep 8
Full
Sep 15
Last Quarter
Sep 24
New

Today's Extremes

State Highs State Lows

Community

WunderPhotos

Upload Photos

1,748,706 photos uploaded!

Nearby

Snow Depth

Station Depth Elevation
No new snow has been reported.

Earthquake Activity

City Distance Mag. Time & Date
No recent earthquake activity has been reported nearby.
Minimum magnitude displayed is 2.5.

Coastal Water Temperatures

Place Temperature
No Stations Reporting

Nearby Weather Stations